sensor_id;sensor_type;location;lat;lon;timestamp;P1;durP1;ratioP1;P2;durP2;ratioP2
32198;SDS011;73953;42.656;21.156;2024-01-16T00:00:58;82.05;;;46.03;;
32198;SDS011;73953;42.656;21.156;2024-01-16T00:03:26;73.95;;;43.13;;
32198;SDS011;73953;42.656;21.156;2024-01-16T00:05:53;65.35;;;40.08;;
32198;SDS011;73953;42.656;21.156;2024-01-16T00:08:20;64.00;;;39.03;;
32198;SDS011;73953;42.656;21.156;2024-01-16T00:10:50;65.30;;;42.00;;
32198;SDS011;73953;42.656;21.156;2024-01-16T00:13:17;66.13;;;42.03;;
32198;SDS011;73953;42.656;21.156;2024-01-16T00:15:44;77.85;;;48.13;;
32198;SDS011;73953;42.656;21.156;2024-01-16T00:18:11;77.78;;;49.70;;
32198;SDS011;73953;42.656;21.156;2024-01-16T00:20:38;72.43;;;45.90;;
32198;SDS011;73953;42.656;21.156;2024-01-16T00:23:06;77.72;;;46.30;;
32198;SDS011;73953;42.656;21.156;2024-01-16T00:25:34;72.07;;;46.30;;
32198;SDS011;73953;42.656;21.156;2024-01-16T00:28:01;78.57;;;47.42;;
32198;SDS011;73953;42.656;21.156;2024-01-16T00:30:29;74.70;;;45.58;;
32198;SDS011;73953;42.656;21.156;2024-01-16T00:32:56;79.93;;;48.88;;
32198;SDS011;73953;42.656;21.156;2024-01-16T00:35:23;84.85;;;51.33;;
32198;SDS011;73953;42.656;21.156;2024-01-16T00:37:50;81.40;;;49.47;;
32198;SDS011;73953;42.656;21.156;2024-01-16T00:40:19;81.32;;;49.30;;
32198;SDS011;73953;42.656;21.156;2024-01-16T00:42:46;79.82;;;48.72;;
32198;SDS011;73953;42.656;21.156;2024-01-16T00:45:13;82.25;;;49.25;;
32198;SDS011;73953;42.656;21.156;2024-01-16T00:47:40;108.25;;;60.95;;
32198;SDS011;73953;42.656;21.156;2024-01-16T00:50:08;107.70;;;58.80;;
32198;SDS011;73953;42.656;21.156;2024-01-16T00:52:36;111.03;;;61.95;;
32198;SDS011;73953;42.656;21.156;2024-01-16T00:55:03;132.35;;;71.60;;
32198;SDS011;73953;42.656;21.156;2024-01-16T00:57:31;107.72;;;62.40;;
32198;SDS011;73953;42.656;21.156;2024-01-16T00:59:58;114.63;;;62.60;;
32198;SDS011;73953;42.656;21.156;2024-01-16T01:02:25;88.60;;;53.70;;
32198;SDS011;73953;42.656;21.156;2024-01-16T01:04:52;105.80;;;62.50;;
32198;SDS011;73953;42.656;21.156;2024-01-16T01:07:19;104.57;;;59.40;;
32198;SDS011;73953;42.656;21.156;2024-01-16T01:09:46;137.00;;;78.50;;
32198;SDS011;73953;42.656;21.156;2024-01-16T01:12:13;113.85;;;66.95;;
32198;SDS011;73953;42.656;21.156;2024-01-16T01:14:39;88.45;;;53.58;;
32198;SDS011;73953;42.656;21.156;2024-01-16T01:17:07;113.95;;;65.68;;
32198;SDS011;73953;42.656;21.156;2024-01-16T01:19:34;135.27;;;79.63;;
32198;SDS011;73953;42.656;21.156;2024-01-16T01:22:01;131.65;;;81.35;;
32198;SDS011;73953;42.656;21.156;2024-01-16T01:24:28;129.98;;;76.78;;
32198;SDS011;73953;42.656;21.156;2024-01-16T01:26:55;113.53;;;70.05;;
32198;SDS011;73953;42.656;21.156;2024-01-16T01:29:22;83.05;;;51.80;;
32198;SDS011;73953;42.656;21.156;2024-01-16T01:31:49;90.75;;;56.30;;
32198;SDS011;73953;42.656;21.156;2024-01-16T01:34:16;110.25;;;65.13;;
32198;SDS011;73953;42.656;21.156;2024-01-16T01:36:43;83.15;;;51.25;;
32198;SDS011;73953;42.656;21.156;2024-01-16T01:39:13;55.15;;;33.72;;
32198;SDS011;73953;42.656;21.156;2024-01-16T01:41:40;58.42;;;36.03;;
32198;SDS011;73953;42.656;21.156;2024-01-16T01:44:07;49.60;;;30.38;;
32198;SDS011;73953;42.656;21.156;2024-01-16T01:46:34;43.47;;;28.42;;
32198;SDS011;73953;42.656;21.156;2024-01-16T01:49:01;41.10;;;26.02;;
32198;SDS011;73953;42.656;21.156;2024-01-16T01:51:29;41.63;;;25.30;;
32198;SDS011;73953;42.656;21.156;2024-01-16T01:53:56;38.95;;;22.45;;
32198;SDS011;73953;42.656;21.156;2024-01-16T01:56:25;31.73;;;20.92;;
32198;SDS011;73953;42.656;21.156;2024-01-16T01:58:56;24.55;;;15.90;;
32198;SDS011;73953;42.656;21.156;2024-01-16T02:01:23;20.42;;;14.80;;
32198;SDS011;73953;42.656;21.156;2024-01-16T02:03:51;17.30;;;11.80;;
32198;SDS011;73953;42.656;21.156;2024-01-16T02:06:19;14.70;;;11.02;;
32198;SDS011;73953;42.656;21.156;2024-01-16T02:08:46;14.25;;;9.20;;
32198;SDS011;73953;42.656;21.156;2024-01-16T02:11:13;9.27;;;7.03;;
32198;SDS011;73953;42.656;21.156;2024-01-16T02:13:40;8.40;;;5.95;;
32198;SDS011;73953;42.656;21.156;2024-01-16T02:16:21;7.63;;;5.28;;
32198;SDS011;73953;42.656;21.156;2024-01-16T02:18:48;7.35;;;4.97;;
32198;SDS011;73953;42.656;21.156;2024-01-16T02:21:17;4.95;;;3.72;;
32198;SDS011;73953;42.656;21.156;2024-01-16T02:23:45;6.57;;;3.90;;
32198;SDS011;73953;42.656;21.156;2024-01-16T02:26:13;4.55;;;2.92;;
32198;SDS011;73953;42.656;21.156;2024-01-16T02:28:41;2.88;;;2.30;;
32198;SDS011;73953;42.656;21.156;2024-01-16T02:31:08;5.10;;;2.30;;
32198;SDS011;73953;42.656;21.156;2024-01-16T02:33:35;3.03;;;2.45;;
32198;SDS011;73953;42.656;21.156;2024-01-16T02:36:02;3.42;;;2.17;;
32198;SDS011;73953;42.656;21.156;2024-01-16T02:38:29;1.88;;;1.55;;
32198;SDS011;73953;42.656;21.156;2024-01-16T02:40:56;2.58;;;1.58;;
32198;SDS011;73953;42.656;21.156;2024-01-16T02:43:26;3.53;;;1.42;;
32198;SDS011;73953;42.656;21.156;2024-01-16T02:45:53;1.88;;;1.10;;
32198;SDS011;73953;42.656;21.156;2024-01-16T02:48:20;3.33;;;1.45;;
32198;SDS011;73953;42.656;21.156;2024-01-16T02:50:47;1.63;;;1.40;;
32198;SDS011;73953;42.656;21.156;2024-01-16T02:53:15;1.92;;;1.25;;
32198;SDS011;73953;42.656;21.156;2024-01-16T02:55:42;1.63;;;1.08;;
32198;SDS011;73953;42.656;21.156;2024-01-16T02:58:09;2.20;;;1.08;;
32198;SDS011;73953;42.656;21.156;2024-01-16T03:00:36;2.45;;;1.40;;
32198;SDS011;73953;42.656;21.156;2024-01-16T03:03:04;1.70;;;1.23;;
32198;SDS011;73953;42.656;21.156;2024-01-16T03:05:31;1.65;;;0.98;;
32198;SDS011;73953;42.656;21.156;2024-01-16T03:07:58;1.67;;;1.00;;
32198;SDS011;73953;42.656;21.156;2024-01-16T03:10:27;1.58;;;1.10;;
32198;SDS011;73953;42.656;21.156;2024-01-16T03:12:54;1.58;;;0.90;;
32198;SDS011;73953;42.656;21.156;2024-01-16T03:15:21;1.00;;;0.90;;
32198;SDS011;73953;42.656;21.156;2024-01-16T03:17:48;2.22;;;1.23;;
32198;SDS011;73953;42.656;21.156;2024-01-16T03:20:18;1.73;;;0.90;;
32198;SDS011;73953;42.656;21.156;2024-01-16T03:22:45;1.10;;;1.00;;
32198;SDS011;73953;42.656;21.156;2024-01-16T03:25:12;0.95;;;0.80;;
32198;SDS011;73953;42.656;21.156;2024-01-16T03:27:39;1.45;;;0.90;;
32198;SDS011;73953;42.656;21.156;2024-01-16T03:30:06;1.48;;;0.93;;
32198;SDS011;73953;42.656;21.156;2024-01-16T03:32:38;1.10;;;1.00;;
32198;SDS011;73953;42.656;21.156;2024-01-16T03:35:06;1.35;;;0.90;;
32198;SDS011;73953;42.656;21.156;2024-01-16T03:37:33;0.90;;;0.75;;
32198;SDS011;73953;42.656;21.156;2024-01-16T03:40:00;1.00;;;0.70;;
32198;SDS011;73953;42.656;21.156;2024-01-16T03:42:27;1.15;;;0.82;;
32198;SDS011;73953;42.656;21.156;2024-01-16T03:44:54;2.40;;;1.13;;
32198;SDS011;73953;42.656;21.156;2024-01-16T03:47:21;1.40;;;1.10;;
32198;SDS011;73953;42.656;21.156;2024-01-16T03:49:48;3.28;;;1.40;;
32198;SDS011;73953;42.656;21.156;2024-01-16T03:52:15;2.28;;;1.23;;
32198;SDS011;73953;42.656;21.156;2024-01-16T03:54:42;3.28;;;1.85;;
32198;SDS011;73953;42.656;21.156;2024-01-16T03:57:09;2.08;;;1.38;;
32198;SDS011;73953;42.656;21.156;2024-01-16T03:59:37;3.78;;;1.67;;
32198;SDS011;73953;42.656;21.156;2024-01-16T04:02:04;1.33;;;0.82;;
32198;SDS011;73953;42.656;21.156;2024-01-16T04:04:31;1.45;;;0.95;;
32198;SDS011;73953;42.656;21.156;2024-01-16T04:06:59;1.20;;;0.80;;
32198;SDS011;73953;42.656;21.156;2024-01-16T04:09:26;1.20;;;0.90;;
32198;SDS011;73953;42.656;21.156;2024-01-16T04:11:53;1.38;;;1.00;;
32198;SDS011;73953;42.656;21.156;2024-01-16T04:14:20;3.78;;;1.00;;
32198;SDS011;73953;42.656;21.156;2024-01-16T04:16:48;1.35;;;0.90;;
32198;SDS011;73953;42.656;21.156;2024-01-16T04:19:15;1.00;;;0.70;;
32198;SDS011;73953;42.656;21.156;2024-01-16T04:21:42;1.50;;;0.80;;
32198;SDS011;73953;42.656;21.156;2024-01-16T04:24:09;0.70;;;0.70;;
32198;SDS011;73953;42.656;21.156;2024-01-16T04:26:36;1.20;;;1.00;;
32198;SDS011;73953;42.656;21.156;2024-01-16T04:29:04;1.27;;;0.80;;
32198;SDS011;73953;42.656;21.156;2024-01-16T04:31:38;0.82;;;0.77;;
32198;SDS011;73953;42.656;21.156;2024-01-16T04:34:06;0.93;;;0.70;;
32198;SDS011;73953;42.656;21.156;2024-01-16T04:36:33;1.42;;;1.00;;
32198;SDS011;73953;42.656;21.156;2024-01-16T04:39:00;0.93;;;0.80;;
32198;SDS011;73953;42.656;21.156;2024-01-16T04:41:27;0.88;;;0.80;;
32198;SDS011;73953;42.656;21.156;2024-01-16T04:43:55;1.10;;;1.00;;
32198;SDS011;73953;42.656;21.156;2024-01-16T04:46:22;1.17;;;0.80;;
32198;SDS011;73953;42.656;21.156;2024-01-16T04:48:49;1.60;;;1.20;;
32198;SDS011;73953;42.656;21.156;2024-01-16T04:51:17;1.33;;;1.10;;
32198;SDS011;73953;42.656;21.156;2024-01-16T04:53:43;1.67;;;0.90;;
32198;SDS011;73953;42.656;21.156;2024-01-16T04:56:11;1.17;;;1.00;;
32198;SDS011;73953;42.656;21.156;2024-01-16T04:58:38;1.27;;;1.00;;
32198;SDS011;73953;42.656;21.156;2024-01-16T05:01:04;1.30;;;0.90;;
32198;SDS011;73953;42.656;21.156;2024-01-16T05:03:32;1.83;;;1.20;;
32198;SDS011;73953;42.656;21.156;2024-01-16T05:05:59;2.30;;;1.45;;
32198;SDS011;73953;42.656;21.156;2024-01-16T05:08:26;2.15;;;1.30;;
32198;SDS011;73953;42.656;21.156;2024-01-16T05:10:53;1.80;;;0.98;;
32198;SDS011;73953;42.656;21.156;2024-01-16T05:13:20;2.55;;;1.70;;
32198;SDS011;73953;42.656;21.156;2024-01-16T05:15:48;2.28;;;1.30;;
32198;SDS011;73953;42.656;21.156;2024-01-16T05:18:15;1.75;;;1.27;;
32198;SDS011;73953;42.656;21.156;2024-01-16T05:20:42;2.38;;;1.30;;
32198;SDS011;73953;42.656;21.156;2024-01-16T05:23:09;2.63;;;1.60;;
32198;SDS011;73953;42.656;21.156;2024-01-16T05:25:36;3.67;;;2.25;;
32198;SDS011;73953;42.656;21.156;2024-01-16T05:28:04;2.65;;;1.60;;
32198;SDS011;73953;42.656;21.156;2024-01-16T05:30:31;2.67;;;1.60;;
32198;SDS011;73953;42.656;21.156;2024-01-16T05:32:59;2.13;;;1.20;;
32198;SDS011;73953;42.656;21.156;2024-01-16T05:35:28;2.92;;;1.50;;
32198;SDS011;73953;42.656;21.156;2024-01-16T05:37:55;2.88;;;1.55;;
32198;SDS011;73953;42.656;21.156;2024-01-16T05:40:22;2.25;;;1.60;;
32198;SDS011;73953;42.656;21.156;2024-01-16T05:42:49;2.33;;;1.73;;
32198;SDS011;73953;42.656;21.156;2024-01-16T05:45:17;2.10;;;1.33;;
32198;SDS011;73953;42.656;21.156;2024-01-16T05:47:44;3.05;;;2.17;;
32198;SDS011;73953;42.656;21.156;2024-01-16T05:50:11;3.33;;;1.90;;
32198;SDS011;73953;42.656;21.156;2024-01-16T05:52:39;3.60;;;1.70;;
32198;SDS011;73953;42.656;21.156;2024-01-16T05:55:11;2.63;;;1.60;;
32198;SDS011;73953;42.656;21.156;2024-01-16T05:57:38;2.97;;;1.75;;
32198;SDS011;73953;42.656;21.156;2024-01-16T06:00:05;1.73;;;1.33;;
32198;SDS011;73953;42.656;21.156;2024-01-16T06:02:32;1.90;;;1.45;;
32198;SDS011;73953;42.656;21.156;2024-01-16T06:04:59;2.75;;;1.55;;
32198;SDS011;73953;42.656;21.156;2024-01-16T06:07:26;3.05;;;1.60;;
32198;SDS011;73953;42.656;21.156;2024-01-16T06:09:53;3.45;;;2.35;;
32198;SDS011;73953;42.656;21.156;2024-01-16T06:12:20;3.88;;;1.95;;
32198;SDS011;73953;42.656;21.156;2024-01-16T06:14:48;3.22;;;2.20;;
32198;SDS011;73953;42.656;21.156;2024-01-16T06:17:15;3.65;;;1.85;;
32198;SDS011;73953;42.656;21.156;2024-01-16T06:19:42;4.60;;;2.60;;
32198;SDS011;73953;42.656;21.156;2024-01-16T06:22:09;4.88;;;2.90;;
32198;SDS011;73953;42.656;21.156;2024-01-16T06:24:36;4.80;;;2.88;;
32198;SDS011;73953;42.656;21.156;2024-01-16T06:27:04;5.72;;;3.10;;
32198;SDS011;73953;42.656;21.156;2024-01-16T06:29:32;4.05;;;2.83;;
32198;SDS011;73953;42.656;21.156;2024-01-16T06:32:01;8.40;;;5.32;;
32198;SDS011;73953;42.656;21.156;2024-01-16T06:34:28;6.88;;;4.30;;
32198;SDS011;73953;42.656;21.156;2024-01-16T06:36:56;7.13;;;4.20;;
32198;SDS011;73953;42.656;21.156;2024-01-16T06:39:23;6.53;;;4.45;;
32198;SDS011;73953;42.656;21.156;2024-01-16T06:41:50;5.50;;;3.53;;
32198;SDS011;73953;42.656;21.156;2024-01-16T06:44:20;8.57;;;4.00;;
32198;SDS011;73953;42.656;21.156;2024-01-16T06:46:47;6.18;;;4.07;;
32198;SDS011;73953;42.656;21.156;2024-01-16T06:49:14;20.42;;;10.80;;
32198;SDS011;73953;42.656;21.156;2024-01-16T06:51:41;14.95;;;9.73;;
32198;SDS011;73953;42.656;21.156;2024-01-16T06:54:08;16.70;;;11.18;;
32198;SDS011;73953;42.656;21.156;2024-01-16T06:56:36;14.10;;;9.23;;
32198;SDS011;73953;42.656;21.156;2024-01-16T06:59:03;23.85;;;16.67;;
32198;SDS011;73953;42.656;21.156;2024-01-16T07:01:31;11.50;;;9.18;;
32198;SDS011;73953;42.656;21.156;2024-01-16T07:03:58;8.80;;;5.43;;
32198;SDS011;73953;42.656;21.156;2024-01-16T07:06:25;8.75;;;5.05;;
32198;SDS011;73953;42.656;21.156;2024-01-16T07:08:53;8.30;;;5.40;;
32198;SDS011;73953;42.656;21.156;2024-01-16T07:11:20;6.40;;;4.53;;
32198;SDS011;73953;42.656;21.156;2024-01-16T07:13:50;11.70;;;6.03;;
32198;SDS011;73953;42.656;21.156;2024-01-16T07:16:18;11.77;;;6.57;;
32198;SDS011;73953;42.656;21.156;2024-01-16T07:18:45;9.48;;;5.38;;
32198;SDS011;73953;42.656;21.156;2024-01-16T07:21:20;8.60;;;4.90;;
32198;SDS011;73953;42.656;21.156;2024-01-16T07:23:48;9.82;;;5.75;;
32198;SDS011;73953;42.656;21.156;2024-01-16T07:26:15;15.45;;;8.27;;
32198;SDS011;73953;42.656;21.156;2024-01-16T07:28:43;20.30;;;9.80;;
32198;SDS011;73953;42.656;21.156;2024-01-16T07:31:11;15.73;;;8.35;;
32198;SDS011;73953;42.656;21.156;2024-01-16T07:33:38;9.05;;;5.15;;
32198;SDS011;73953;42.656;21.156;2024-01-16T07:36:06;10.35;;;5.93;;
32198;SDS011;73953;42.656;21.156;2024-01-16T07:38:33;8.82;;;5.10;;
32198;SDS011;73953;42.656;21.156;2024-01-16T07:41:00;8.10;;;4.50;;
32198;SDS011;73953;42.656;21.156;2024-01-16T07:43:27;6.22;;;4.63;;
32198;SDS011;73953;42.656;21.156;2024-01-16T07:45:55;7.50;;;4.68;;
32198;SDS011;73953;42.656;21.156;2024-01-16T07:48:22;10.05;;;6.22;;
32198;SDS011;73953;42.656;21.156;2024-01-16T07:50:50;9.68;;;5.60;;
32198;SDS011;73953;42.656;21.156;2024-01-16T07:53:17;5.82;;;3.92;;
32198;SDS011;73953;42.656;21.156;2024-01-16T07:55:44;14.30;;;6.97;;
32198;SDS011;73953;42.656;21.156;2024-01-16T07:58:11;11.57;;;6.63;;
32198;SDS011;73953;42.656;21.156;2024-01-16T08:00:39;11.52;;;6.55;;
32198;SDS011;73953;42.656;21.156;2024-01-16T08:03:08;10.23;;;6.03;;
32198;SDS011;73953;42.656;21.156;2024-01-16T08:05:35;7.03;;;4.07;;
32198;SDS011;73953;42.656;21.156;2024-01-16T08:08:02;12.48;;;6.82;;
32198;SDS011;73953;42.656;21.156;2024-01-16T08:10:29;9.25;;;5.05;;
32198;SDS011;73953;42.656;21.156;2024-01-16T08:12:56;10.02;;;7.00;;
32198;SDS011;73953;42.656;21.156;2024-01-16T08:15:23;6.88;;;3.95;;
32198;SDS011;73953;42.656;21.156;2024-01-16T08:17:50;10.18;;;5.25;;
32198;SDS011;73953;42.656;21.156;2024-01-16T08:20:18;11.15;;;6.18;;
32198;SDS011;73953;42.656;21.156;2024-01-16T08:22:46;10.07;;;5.05;;
32198;SDS011;73953;42.656;21.156;2024-01-16T08:25:13;11.43;;;6.55;;
32198;SDS011;73953;42.656;21.156;2024-01-16T08:27:40;12.57;;;7.28;;
32198;SDS011;73953;42.656;21.156;2024-01-16T08:30:07;18.05;;;7.97;;
32198;SDS011;73953;42.656;21.156;2024-01-16T08:32:34;9.93;;;5.82;;
32198;SDS011;73953;42.656;21.156;2024-01-16T08:35:02;18.58;;;9.93;;
32198;SDS011;73953;42.656;21.156;2024-01-16T08:37:29;11.70;;;6.25;;
32198;SDS011;73953;42.656;21.156;2024-01-16T08:39:57;9.68;;;5.03;;
32198;SDS011;73953;42.656;21.156;2024-01-16T08:42:24;6.72;;;3.95;;
32198;SDS011;73953;42.656;21.156;2024-01-16T08:44:52;7.32;;;3.20;;
32198;SDS011;73953;42.656;21.156;2024-01-16T08:47:19;6.90;;;3.95;;
32198;SDS011;73953;42.656;21.156;2024-01-16T08:49:46;8.63;;;4.53;;
32198;SDS011;73953;42.656;21.156;2024-01-16T08:52:13;6.35;;;4.05;;
32198;SDS011;73953;42.656;21.156;2024-01-16T08:54:40;9.18;;;4.85;;
32198;SDS011;73953;42.656;21.156;2024-01-16T08:57:07;22.15;;;9.93;;
32198;SDS011;73953;42.656;21.156;2024-01-16T08:59:42;19.23;;;9.48;;
32198;SDS011;73953;42.656;21.156;2024-01-16T09:02:10;28.25;;;14.52;;
32198;SDS011;73953;42.656;21.156;2024-01-16T09:04:37;18.75;;;10.65;;
32198;SDS011;73953;42.656;21.156;2024-01-16T09:07:06;20.27;;;11.88;;
32198;SDS011;73953;42.656;21.156;2024-01-16T09:09:33;18.95;;;10.70;;
32198;SDS011;73953;42.656;21.156;2024-01-16T09:12:01;13.27;;;7.40;;
32198;SDS011;73953;42.656;21.156;2024-01-16T09:14:29;13.98;;;6.25;;
32198;SDS011;73953;42.656;21.156;2024-01-16T09:16:56;10.75;;;6.22;;
32198;SDS011;73953;42.656;21.156;2024-01-16T09:19:23;6.53;;;3.97;;
32198;SDS011;73953;42.656;21.156;2024-01-16T09:21:53;10.75;;;5.47;;
32198;SDS011;73953;42.656;21.156;2024-01-16T09:24:21;11.27;;;6.80;;
32198;SDS011;73953;42.656;21.156;2024-01-16T09:26:49;16.17;;;9.82;;
32198;SDS011;73953;42.656;21.156;2024-01-16T09:29:16;13.52;;;8.27;;
32198;SDS011;73953;42.656;21.156;2024-01-16T09:31:43;13.95;;;8.35;;
32198;SDS011;73953;42.656;21.156;2024-01-16T09:34:10;14.18;;;8.18;;
32198;SDS011;73953;42.656;21.156;2024-01-16T09:36:40;13.95;;;8.30;;
32198;SDS011;73953;42.656;21.156;2024-01-16T09:39:07;10.98;;;6.97;;
32198;SDS011;73953;42.656;21.156;2024-01-16T09:41:45;14.95;;;8.70;;
32198;SDS011;73953;42.656;21.156;2024-01-16T09:44:13;9.35;;;5.90;;
32198;SDS011;73953;42.656;21.156;2024-01-16T09:46:40;5.93;;;3.65;;
32198;SDS011;73953;42.656;21.156;2024-01-16T09:49:10;7.18;;;4.28;;
32198;SDS011;73953;42.656;21.156;2024-01-16T09:51:38;15.48;;;9.00;;
32198;SDS011;73953;42.656;21.156;2024-01-16T09:54:05;23.90;;;12.55;;
32198;SDS011;73953;42.656;21.156;2024-01-16T09:56:38;13.18;;;8.40;;
32198;SDS011;73953;42.656;21.156;2024-01-16T09:59:06;7.93;;;5.10;;
32198;SDS011;73953;42.656;21.156;2024-01-16T10:01:35;7.32;;;5.22;;
32198;SDS011;73953;42.656;21.156;2024-01-16T10:04:03;14.85;;;8.30;;
32198;SDS011;73953;42.656;21.156;2024-01-16T10:06:30;8.60;;;5.20;;
32198;SDS011;73953;42.656;21.156;2024-01-16T10:08:58;12.52;;;7.53;;
32198;SDS011;73953;42.656;21.156;2024-01-16T10:11:25;12.38;;;7.88;;
32198;SDS011;73953;42.656;21.156;2024-01-16T10:13:53;11.15;;;6.78;;
32198;SDS011;73953;42.656;21.156;2024-01-16T10:16:20;15.88;;;8.27;;
32198;SDS011;73953;42.656;21.156;2024-01-16T10:19:03;19.65;;;12.00;;
32198;SDS011;73953;42.656;21.156;2024-01-16T10:21:30;9.90;;;5.72;;
32198;SDS011;73953;42.656;21.156;2024-01-16T10:24:10;8.13;;;5.03;;
32198;SDS011;73953;42.656;21.156;2024-01-16T10:26:37;8.73;;;5.20;;
32198;SDS011;73953;42.656;21.156;2024-01-16T10:29:04;17.58;;;9.65;;
32198;SDS011;73953;42.656;21.156;2024-01-16T10:31:35;25.37;;;12.83;;
32198;SDS011;73953;42.656;21.156;2024-01-16T10:34:02;15.20;;;8.95;;
32198;SDS011;73953;42.656;21.156;2024-01-16T10:36:31;14.85;;;7.78;;
32198;SDS011;73953;42.656;21.156;2024-01-16T10:39:02;10.23;;;6.18;;
32198;SDS011;73953;42.656;21.156;2024-01-16T10:44:07;11.98;;;6.53;;
32198;SDS011;73953;42.656;21.156;2024-01-16T10:46:34;17.60;;;9.27;;
32198;SDS011;73953;42.656;21.156;2024-01-16T10:49:04;18.40;;;9.32;;
32198;SDS011;73953;42.656;21.156;2024-01-16T10:51:32;12.15;;;6.53;;
32198;SDS011;73953;42.656;21.156;2024-01-16T10:54:03;10.77;;;5.47;;
32198;SDS011;73953;42.656;21.156;2024-01-16T10:56:37;2.25;;;1.83;;
32198;SDS011;73953;42.656;21.156;2024-01-16T11:01:51;13.63;;;7.05;;
32198;SDS011;73953;42.656;21.156;2024-01-16T11:04:20;18.80;;;10.88;;
32198;SDS011;73953;42.656;21.156;2024-01-16T11:06:47;13.85;;;7.30;;
32198;SDS011;73953;42.656;21.156;2024-01-16T11:09:14;32.88;;;16.63;;
32198;SDS011;73953;42.656;21.156;2024-01-16T11:11:45;23.40;;;12.82;;
32198;SDS011;73953;42.656;21.156;2024-01-16T11:14:13;63.17;;;22.83;;
32198;SDS011;73953;42.656;21.156;2024-01-16T11:16:40;12.23;;;6.47;;
32198;SDS011;73953;42.656;21.156;2024-01-16T11:19:08;80.05;;;31.33;;
32198;SDS011;73953;42.656;21.156;2024-01-16T11:21:56;21.55;;;9.88;;
32198;SDS011;73953;42.656;21.156;2024-01-16T11:24:23;20.30;;;8.18;;
32198;SDS011;73953;42.656;21.156;2024-01-16T11:26:50;11.50;;;6.25;;
32198;SDS011;73953;42.656;21.156;2024-01-16T11:31:54;8.05;;;3.60;;
32198;SDS011;73953;42.656;21.156;2024-01-16T11:37:08;33.45;;;17.15;;
32198;SDS011;73953;42.656;21.156;2024-01-16T11:39:36;9.93;;;5.35;;
32198;SDS011;73953;42.656;21.156;2024-01-16T11:42:03;12.70;;;6.30;;
32198;SDS011;73953;42.656;21.156;2024-01-16T11:44:37;9.85;;;5.07;;
32198;SDS011;73953;42.656;21.156;2024-01-16T11:47:04;14.63;;;6.65;;
32198;SDS011;73953;42.656;21.156;2024-01-16T11:49:31;16.13;;;6.78;;
32198;SDS011;73953;42.656;21.156;2024-01-16T11:51:59;24.67;;;11.05;;
32198;SDS011;73953;42.656;21.156;2024-01-16T11:54:26;22.25;;;8.73;;
32198;SDS011;73953;42.656;21.156;2024-01-16T12:01:47;8.52;;;4.82;;
32198;SDS011;73953;42.656;21.156;2024-01-16T12:04:18;8.98;;;5.68;;
32198;SDS011;73953;42.656;21.156;2024-01-16T12:06:59;32.90;;;19.33;;
32198;SDS011;73953;42.656;21.156;2024-01-16T12:09:27;6.95;;;4.25;;
32198;SDS011;73953;42.656;21.156;2024-01-16T12:11:58;7.28;;;3.97;;
32198;SDS011;73953;42.656;21.156;2024-01-16T12:14:28;6.50;;;3.80;;
32198;SDS011;73953;42.656;21.156;2024-01-16T12:17:11;8.95;;;5.32;;
32198;SDS011;73953;42.656;21.156;2024-01-16T12:19:38;7.75;;;4.90;;
32198;SDS011;73953;42.656;21.156;2024-01-16T12:22:10;9.38;;;4.88;;
32198;SDS011;73953;42.656;21.156;2024-01-16T12:24:37;9.23;;;5.43;;
32198;SDS011;73953;42.656;21.156;2024-01-16T12:27:05;12.35;;;5.07;;
32198;SDS011;73953;42.656;21.156;2024-01-16T12:29:32;27.83;;;13.45;;
32198;SDS011;73953;42.656;21.156;2024-01-16T12:32:06;13.07;;;5.93;;
32198;SDS011;73953;42.656;21.156;2024-01-16T12:34:34;8.32;;;4.28;;
32198;SDS011;73953;42.656;21.156;2024-01-16T12:37:05;7.63;;;4.30;;
32198;SDS011;73953;42.656;21.156;2024-01-16T12:42:02;10.07;;;6.10;;
32198;SDS011;73953;42.656;21.156;2024-01-16T12:44:29;17.75;;;7.70;;
32198;SDS011;73953;42.656;21.156;2024-01-16T12:46:56;10.70;;;6.18;;
32198;SDS011;73953;42.656;21.156;2024-01-16T12:49:24;9.73;;;4.05;;
32198;SDS011;73953;42.656;21.156;2024-01-16T12:51:51;5.28;;;3.20;;
32198;SDS011;73953;42.656;21.156;2024-01-16T12:54:38;9.60;;;5.30;;
32198;SDS011;73953;42.656;21.156;2024-01-16T12:57:05;7.45;;;4.47;;
32198;SDS011;73953;42.656;21.156;2024-01-16T12:59:33;10.65;;;5.07;;
32198;SDS011;73953;42.656;21.156;2024-01-16T13:02:00;13.70;;;5.80;;
32198;SDS011;73953;42.656;21.156;2024-01-16T13:04:27;6.07;;;2.78;;
32198;SDS011;73953;42.656;21.156;2024-01-16T13:07:01;8.88;;;3.47;;
32198;SDS011;73953;42.656;21.156;2024-01-16T13:09:28;8.93;;;4.63;;
32198;SDS011;73953;42.656;21.156;2024-01-16T13:11:55;8.05;;;4.30;;
32198;SDS011;73953;42.656;21.156;2024-01-16T13:14:23;5.90;;;3.35;;
32198;SDS011;73953;42.656;21.156;2024-01-16T13:16:50;8.35;;;4.15;;
32198;SDS011;73953;42.656;21.156;2024-01-16T13:19:21;10.07;;;3.88;;
32198;SDS011;73953;42.656;21.156;2024-01-16T13:21:48;12.98;;;5.35;;
32198;SDS011;73953;42.656;21.156;2024-01-16T13:24:16;13.02;;;6.15;;
32198;SDS011;73953;42.656;21.156;2024-01-16T13:26:44;5.72;;;4.00;;
32198;SDS011;73953;42.656;21.156;2024-01-16T13:29:12;19.80;;;7.57;;
32198;SDS011;73953;42.656;21.156;2024-01-16T13:31:39;12.32;;;5.93;;
32198;SDS011;73953;42.656;21.156;2024-01-16T13:34:07;13.43;;;5.38;;
32198;SDS011;73953;42.656;21.156;2024-01-16T13:36:34;9.90;;;5.05;;
32198;SDS011;73953;42.656;21.156;2024-01-16T13:39:21;7.03;;;4.47;;
32198;SDS011;73953;42.656;21.156;2024-01-16T13:41:48;7.15;;;4.57;;
32198;SDS011;73953;42.656;21.156;2024-01-16T13:44:15;7.10;;;4.65;;
32198;SDS011;73953;42.656;21.156;2024-01-16T13:46:42;15.35;;;9.23;;
32198;SDS011;73953;42.656;21.156;2024-01-16T13:49:27;15.95;;;8.90;;
32198;SDS011;73953;42.656;21.156;2024-01-16T13:51:54;13.10;;;5.90;;
32198;SDS011;73953;42.656;21.156;2024-01-16T13:54:21;7.07;;;4.05;;
32198;SDS011;73953;42.656;21.156;2024-01-16T13:56:48;7.63;;;5.03;;
32198;SDS011;73953;42.656;21.156;2024-01-16T13:59:31;9.45;;;5.40;;
32198;SDS011;73953;42.656;21.156;2024-01-16T14:01:59;9.93;;;4.82;;
32198;SDS011;73953;42.656;21.156;2024-01-16T14:04:26;11.18;;;6.05;;
32198;SDS011;73953;42.656;21.156;2024-01-16T14:06:53;13.10;;;5.38;;
32198;SDS011;73953;42.656;21.156;2024-01-16T14:09:38;8.00;;;4.32;;
32198;SDS011;73953;42.656;21.156;2024-01-16T14:12:09;6.95;;;4.40;;
32198;SDS011;73953;42.656;21.156;2024-01-16T14:14:37;23.25;;;13.27;;
32198;SDS011;73953;42.656;21.156;2024-01-16T14:17:05;9.98;;;5.28;;
32198;SDS011;73953;42.656;21.156;2024-01-16T14:19:35;9.48;;;5.38;;
32198;SDS011;73953;42.656;21.156;2024-01-16T14:22:02;34.63;;;9.32;;
32198;SDS011;73953;42.656;21.156;2024-01-16T14:24:29;31.05;;;11.95;;
32198;SDS011;73953;42.656;21.156;2024-01-16T14:26:56;13.30;;;5.25;;
32198;SDS011;73953;42.656;21.156;2024-01-16T14:29:24;17.88;;;7.47;;
32198;SDS011;73953;42.656;21.156;2024-01-16T14:31:52;25.98;;;11.20;;
32198;SDS011;73953;42.656;21.156;2024-01-16T14:34:19;62.58;;;29.40;;
32198;SDS011;73953;42.656;21.156;2024-01-16T14:36:46;104.63;;;46.03;;
32198;SDS011;73953;42.656;21.156;2024-01-16T14:39:13;50.70;;;22.35;;
32198;SDS011;73953;42.656;21.156;2024-01-16T14:41:45;92.75;;;42.40;;
32198;SDS011;73953;42.656;21.156;2024-01-16T14:44:13;35.88;;;16.98;;
32198;SDS011;73953;42.656;21.156;2024-01-16T14:46:40;60.28;;;25.92;;
32198;SDS011;73953;42.656;21.156;2024-01-16T14:49:11;33.22;;;16.70;;